createdAt,value
2023-02-19T00:00:41.558Z,2.90
2023-02-19T00:06:06.858Z,2.90
2023-02-19T00:11:15.856Z,2.90
2023-02-19T00:16:31.764Z,2.90
2023-02-19T00:21:35.302Z,2.90
2023-02-19T00:26:41.209Z,3.00
2023-02-19T00:31:48.776Z,3.10
2023-02-19T00:36:52.110Z,3.20
2023-02-19T00:41:57.957Z,3.30
2023-02-19T00:47:01.268Z,3.30
2023-02-19T00:52:04.668Z,3.40
2023-02-19T00:57:07.769Z,3.40
2023-02-19T01:02:11.108Z,3.50
2023-02-19T01:07:14.766Z,3.50
2023-02-19T01:12:20.999Z,3.50
2023-02-19T01:17:24.501Z,3.50
2023-02-19T01:22:27.703Z,3.50
2023-02-19T01:27:30.984Z,3.60
2023-02-19T01:32:34.273Z,3.60
2023-02-19T01:37:38.472Z,3.60
2023-02-19T01:42:44.673Z,3.60
2023-02-19T01:47:54.576Z,3.60
2023-02-19T01:52:59.016Z,3.60
2023-02-19T01:58:03.755Z,3.60
2023-02-19T02:03:07.362Z,3.60
2023-02-19T02:08:29.615Z,3.70
2023-02-19T02:13:38.199Z,3.70
2023-02-19T02:18:53.759Z,3.60
2023-02-19T02:24:31.087Z,3.70
2023-02-19T02:29:53.219Z,3.60
2023-02-19T02:35:06.099Z,3.60
2023-02-19T02:40:12.575Z,3.60
2023-02-19T02:45:37.731Z,3.60
2023-02-19T02:51:14.307Z,3.60
2023-02-19T02:56:19.265Z,3.60
2023-02-19T03:01:51.361Z,3.50
2023-02-19T03:06:56.206Z,3.50
2023-02-19T03:12:22.968Z,3.50
2023-02-19T03:18:11.776Z,3.50
2023-02-19T03:23:17.564Z,3.40
2023-02-19T03:28:44.345Z,3.40
2023-02-19T03:33:52.691Z,3.40
2023-02-19T03:39:10.134Z,3.30
2023-02-19T03:44:22.225Z,3.30
2023-02-19T03:50:03.736Z,3.20
2023-02-19T03:55:19.726Z,3.20
2023-02-19T04:00:38.922Z,3.20
2023-02-19T04:05:47.538Z,3.10
2023-02-19T04:10:52.455Z,3.00
2023-02-19T04:16:01.376Z,3.00
2023-02-19T04:21:06.511Z,3.00
2023-02-19T04:26:11.340Z,3.00
2023-02-19T04:31:15.060Z,2.90
2023-02-19T04:36:18.417Z,2.90
2023-02-19T04:41:21.683Z,2.90
2023-02-19T04:46:25.444Z,2.90
2023-02-19T04:51:28.713Z,2.90
2023-02-19T04:56:32.464Z,2.80
2023-02-19T05:01:35.880Z,2.80
2023-02-19T05:06:39.105Z,2.80
2023-02-19T05:11:45.523Z,2.80
2023-02-19T05:16:51.782Z,2.70
2023-02-19T05:21:55.041Z,2.80
2023-02-19T05:26:58.678Z,2.80
2023-02-19T05:32:02.077Z,2.70
2023-02-19T05:37:05.483Z,2.80
2023-02-19T05:42:08.785Z,2.70
2023-02-19T05:47:12.313Z,2.70
2023-02-19T05:52:15.571Z,2.70
2023-02-19T05:57:20.833Z,2.70
2023-02-19T06:02:23.988Z,2.70
2023-02-19T06:07:27.460Z,2.70
2023-02-19T06:12:30.686Z,2.60
2023-02-19T06:17:34.805Z,2.60
2023-02-19T06:22:37.962Z,2.60
2023-02-19T06:27:41.250Z,2.60
2023-02-19T06:32:44.612Z,2.60
2023-02-19T06:37:48.938Z,2.70
2023-02-19T06:42:52.239Z,2.70
2023-02-19T06:47:55.602Z,2.70
2023-02-19T06:52:59.389Z,2.80
2023-02-19T06:58:02.801Z,2.80
2023-02-19T07:03:05.991Z,2.90
2023-02-19T07:08:10.127Z,2.90
2023-02-19T07:13:13.702Z,3.00
2023-02-19T07:18:17.083Z,3.10
2023-02-19T07:23:20.621Z,3.10
2023-02-19T07:28:23.906Z,3.20
2023-02-19T07:33:29.912Z,3.30
2023-02-19T07:38:33.275Z,3.30
2023-02-19T07:43:38.093Z,3.40
2023-02-19T07:48:43.325Z,3.50
2023-02-19T07:53:51.567Z,3.50
2023-02-19T07:58:55.268Z,3.50
2023-02-19T08:03:58.795Z,3.60
2023-02-19T08:09:01.980Z,3.70
2023-02-19T08:14:05.833Z,3.70
2023-02-19T08:19:09.009Z,3.80
2023-02-19T08:24:12.279Z,3.80
2023-02-19T08:29:15.796Z,3.90
2023-02-19T08:34:19.097Z,4.00
2023-02-19T08:39:22.407Z,4.20
2023-02-19T08:44:25.966Z,4.30
2023-02-19T08:49:33.526Z,4.40
2023-02-19T08:54:37.354Z,4.50
2023-02-19T08:59:40.592Z,4.50
2023-02-19T09:04:44.677Z,4.60
2023-02-19T09:09:48.022Z,4.60
2023-02-19T09:14:55.861Z,4.70
2023-02-19T09:19:59.984Z,4.90
2023-02-19T09:25:06.535Z,5.00
2023-02-19T09:30:10.369Z,5.10
2023-02-19T09:35:14.255Z,5.30
2023-02-19T09:40:24.427Z,5.50
2023-02-19T09:45:28.673Z,5.60
2023-02-19T09:50:38.091Z,5.60
2023-02-19T09:55:44.097Z,5.80
2023-02-19T10:00:50.305Z,5.80
2023-02-19T10:05:54.462Z,6.00
2023-02-19T10:11:08.144Z,5.90
2023-02-19T10:16:25.241Z,6.00
2023-02-19T10:21:32.675Z,6.30
2023-02-19T10:26:37.384Z,6.20
2023-02-19T10:31:41.589Z,6.40
2023-02-19T10:36:47.931Z,6.70
2023-02-19T10:41:55.044Z,6.80
2023-02-19T10:47:01.595Z,6.80
2023-02-19T10:52:34.744Z,6.60
2023-02-19T10:57:39.186Z,6.70
2023-02-19T11:02:45.853Z,6.60
2023-02-19T11:07:54.491Z,6.60
2023-02-19T11:13:09.844Z,6.40
2023-02-19T11:18:14.358Z,6.50
2023-02-19T11:23:24.652Z,6.30
2023-02-19T11:28:40.045Z,6.40
2023-02-19T11:33:57.637Z,6.70
2023-02-19T11:39:26.340Z,7.00
2023-02-19T11:44:49.098Z,7.10
2023-02-19T11:50:09.518Z,7.20
2023-02-19T11:55:32.437Z,7.20
2023-02-19T12:00:50.645Z,7.50
2023-02-19T12:06:28.635Z,7.90
2023-02-19T12:11:44.340Z,7.90
2023-02-19T12:16:57.275Z,7.80
2023-02-19T12:22:21.049Z,7.60
2023-02-19T12:27:53.612Z,7.40
2023-02-19T12:32:57.823Z,7.10
2023-02-19T12:38:16.460Z,7.10
2023-02-19T12:43:26.758Z,7.20
2023-02-19T12:48:40.342Z,7.30
2023-02-19T12:54:30.547Z,7.10
2023-02-19T12:59:56.558Z,6.90
2023-02-19T13:05:06.450Z,6.80
2023-02-19T13:10:11.941Z,6.80
2023-02-19T13:15:18.001Z,6.80
2023-02-19T13:20:35.672Z,6.60
2023-02-19T13:26:04.260Z,6.70
2023-02-19T13:31:44.835Z,6.70
2023-02-19T13:36:49.841Z,6.60
2023-02-19T13:41:57.779Z,6.40
2023-02-19T13:47:07.388Z,6.30
2023-02-19T13:52:36.570Z,6.20
2023-02-19T13:57:42.248Z,6.00
2023-02-19T14:02:46.599Z,6.10
2023-02-19T14:07:55.260Z,6.30
2023-02-19T14:13:02.689Z,6.50
2023-02-19T14:18:44.168Z,6.90
2023-02-19T14:23:56.846Z,7.20
2023-02-19T14:29:03.543Z,7.30
2023-02-19T14:34:25.072Z,6.80
2023-02-19T14:39:42.613Z,6.40
2023-02-19T14:44:58.784Z,6.50
2023-02-19T14:50:33.378Z,6.90
2023-02-19T14:55:43.626Z,7.10
2023-02-19T15:00:48.997Z,7.10
2023-02-19T15:06:14.022Z,6.90
2023-02-19T15:11:24.792Z,6.80
2023-02-19T15:16:32.361Z,6.50
2023-02-19T15:21:45.347Z,6.30
2023-02-19T15:26:52.833Z,5.90
2023-02-19T15:32:01.108Z,5.60
2023-02-19T15:37:14.139Z,5.40
2023-02-19T15:42:32.661Z,5.30
2023-02-19T15:47:42.569Z,5.10
2023-02-19T15:52:50.958Z,5.00
2023-02-19T15:58:04.859Z,4.80
2023-02-19T16:03:20.082Z,4.60
2023-02-19T16:08:38.438Z,4.50
2023-02-19T16:13:44.290Z,4.50
2023-02-19T16:18:50.979Z,4.40
2023-02-19T16:24:17.541Z,4.30
2023-02-19T16:29:28.579Z,4.10
2023-02-19T16:34:52.368Z,4.00
2023-02-19T16:40:30.152Z,3.80
2023-02-19T16:45:35.086Z,3.70
2023-02-19T16:50:43.996Z,3.60
2023-02-19T16:55:50.348Z,3.50
2023-02-19T17:00:56.738Z,3.40
2023-02-19T17:06:02.244Z,3.30
2023-02-19T17:11:14.122Z,3.20
2023-02-19T17:16:22.440Z,3.10
2023-02-19T17:21:30.256Z,3.20
2023-02-19T17:26:38.984Z,3.10
2023-02-19T17:31:44.258Z,3.00
2023-02-19T17:36:50.248Z,3.00
2023-02-19T17:41:56.636Z,3.00
2023-02-19T17:47:04.045Z,2.80
2023-02-19T17:52:09.161Z,2.80
2023-02-19T17:57:16.365Z,2.70
2023-02-19T18:02:21.828Z,2.60
2023-02-19T18:07:27.467Z,2.60
2023-02-19T18:12:36.604Z,2.60
2023-02-19T18:17:41.733Z,2.50
2023-02-19T18:22:48.165Z,2.50
2023-02-19T18:27:56.298Z,2.50
2023-02-19T18:33:18.097Z,2.40
2023-02-19T18:38:25.447Z,2.40
2023-02-19T18:43:29.829Z,2.30
2023-02-19T18:48:36.001Z,2.30
2023-02-19T18:53:45.437Z,2.30
2023-02-19T18:58:52.323Z,2.20
2023-02-19T19:04:01.425Z,2.20
2023-02-19T19:09:09.097Z,2.20
2023-02-19T19:14:15.631Z,2.10
2023-02-19T19:19:20.557Z,2.10
2023-02-19T19:24:26.361Z,2.10
2023-02-19T19:29:34.331Z,2.10
2023-02-19T19:34:40.713Z,2.10
2023-02-19T19:39:53.973Z,2.10
2023-02-19T19:44:59.231Z,2.10
2023-02-19T19:50:05.183Z,2.10
2023-02-19T19:55:12.555Z,2.00
2023-02-19T20:00:24.880Z,2.00
2023-02-19T20:05:32.386Z,1.90
2023-02-19T20:10:40.038Z,1.80
2023-02-19T20:15:46.939Z,1.80
2023-02-19T20:20:52.699Z,1.70
2023-02-19T20:26:06.287Z,1.70
2023-02-19T20:31:13.358Z,1.60
2023-02-19T20:36:21.147Z,1.60
2023-02-19T20:41:27.481Z,1.60
2023-02-19T20:46:36.197Z,1.60
2023-02-19T20:51:46.715Z,1.60
2023-02-19T20:56:54.696Z,1.60
2023-02-19T21:02:00.039Z,1.70
2023-02-19T21:07:07.152Z,1.80
2023-02-19T21:12:14.869Z,1.90
2023-02-19T21:17:23.387Z,1.90
2023-02-19T21:22:31.519Z,2.00
2023-02-19T21:27:35.438Z,2.10
2023-02-19T21:32:44.294Z,2.10
2023-02-19T21:37:52.024Z,2.20
2023-02-19T21:42:55.989Z,2.20
2023-02-19T21:47:59.430Z,2.20
2023-02-19T21:53:06.096Z,2.20
2023-02-19T21:58:13.078Z,2.20
2023-02-19T22:03:17.444Z,2.20
2023-02-19T22:08:21.870Z,2.20
2023-02-19T22:13:25.804Z,2.30
2023-02-19T22:18:29.611Z,2.30
2023-02-19T22:23:32.923Z,2.30
2023-02-19T22:28:36.413Z,2.30
2023-02-19T22:33:40.242Z,2.30
2023-02-19T22:38:43.534Z,2.40
2023-02-19T22:43:47.594Z,2.30
2023-02-19T22:48:51.348Z,2.30
2023-02-19T22:53:56.298Z,2.30
2023-02-19T22:58:59.861Z,2.30
2023-02-19T23:04:03.187Z,2.20
2023-02-19T23:09:11.015Z,2.20
2023-02-19T23:14:17.793Z,2.20
2023-02-19T23:19:21.320Z,2.10
2023-02-19T23:24:24.879Z,2.10
2023-02-19T23:29:30.191Z,2.10
2023-02-19T23:34:33.448Z,2.10
2023-02-19T23:39:37.084Z,2.10
2023-02-19T23:44:40.377Z,2.20
2023-02-19T23:49:43.814Z,2.20
2023-02-19T23:54:47.522Z,2.20
2023-02-19T23:59:51.083Z,2.20
